Aérodrome :
LOGIN :

S'inscrire | Disclaimer

   EN    FR    IT 

 










Légende :    VFR   VFR Marginal   IFR   IFR Intensif   IFR Très Intensif
Visi : 
Plafond : 
>= 8 km
>= 3000ft
5 à 8 km
1000 à 3000 ft
1500m à 5 km
500 à 1000 ft
800 à 1500m
200 à 500 ft
< 800m
< 200 ft
Symboles :   Orages  Brouillard  Fortes neiges  Fortes précipitations  Vent > 20 kt
SIGMETs :   Divers  Orages  Givrage  Turbulence  Onde Orograph.  Cendres Volcan.






- Altitude de l'aérodrome : 776 ft
- Code IATA : RMS


ETAR - Ramstein Air Base

DERNIER METAR :
  • 051756Z AUTO 10006KT 9999 CLR 25/07 A3004 RMK AO2 SLP169 T02520069 10274 20252 53002 FZRANO $

METARs EXPIRÉS :
  • 051656Z AUTO 13008KT 9999 CLR 26/07 A3004 RMK AO2 SLP171 T02630068 FZRANO $
  • 051556Z AUTO 08004KT 9999 CLR 27/07 A3003 RMK AO2 SLP167 T02700074 FZRANO $

TAF TAF ETAR
Valide du 05 à 18h jusqu'au 07 à 00h UTC


051800Z 0518/0624 VRB06KT 9999 SKC QNH3004INS
BECMG 0609/0610 10010G15KT 9999 FEW040 QNH3013INS
BECMG 0618/0619 VRB06KT 9999 SKC QNH3014INS TX30/0614Z TN10/0604Z



MET'MAP, la Météo Aéronautique d'un coup d'oeil ! - Copyright ORBIFLY Décembre 2007 - Disclaimer

ORBIFLY MET'MAP TEAM :

Programmation & Développement : Alexandra Zaïnal
Sur une idée originale de : Baudouin d'Aumeries
Assistance à la programmation : Marc-Olivier Méhu
Soutien technique & logistique : Manuel Goepfert

Contact : metmap@orbifly.com




SOURCES & CREDITS :

   NOAA